Time;durP1;ratioP1;P1;durP2;ratioP2;P2;SDS_P1;SDS_P2;PMS_P1;PMS_P2;Temp;Humidity;BMP_temperature;BMP_pressure;BME280_temperature;BME280_humidity;BME280_pressure;Samples;Min_cycle;Max_cycle;Signal;HPM_P1;HPM_P2
2022/01/28 00:00:08;;;;;;;6.28;0.90;;;;;;;;;;5012206;28;20534;-59
2022/01/28 00:05:04;;;;;;;7.68;1.40;;;;;;;;;;5030186;28;20674;-60
2022/01/28 00:07:30;;;;;;;15.73;1.80;;;;;;;;;;5013067;28;20133;-59
2022/01/28 00:09:56;;;;;;;11.50;1.85;;;;;;;;;;5024787;28;20076;-61
2022/01/28 00:12:24;;;;;;;19.73;1.98;;;;;;;;;;5028403;28;20041;-60
2022/01/28 00:38:59;;;;;;;13.47;2.27;;;;;;;;;;5130365;27;20546;-59
2022/01/28 00:41:25;;;;;;;19.17;2.15;;;;;;;;;;5134187;27;20293;-59
2022/01/28 00:43:51;;;;;;;12.27;2.25;;;;;;;;;;5132452;27;20457;-60
2022/01/28 00:46:17;;;;;;;17.83;3.47;;;;;;;;;;5132742;27;20039;-60
2022/01/28 00:48:43;;;;;;;19.05;2.72;;;;;;;;;;5132556;27;20047;-60
2022/01/28 00:51:09;;;;;;;17.90;2.80;;;;;;;;;;5132839;27;20035;-60
2022/01/28 00:53:34;;;;;;;15.95;1.77;;;;;;;;;;5127551;27;20042;-60
2022/01/28 00:56:00;;;;;;;14.73;1.77;;;;;;;;;;5132817;27;20039;-60
2022/01/28 00:58:27;;;;;;;17.65;2.60;;;;;;;;;;5134333;27;20087;-60
2022/01/28 01:00:53;;;;;;;16.38;2.45;;;;;;;;;;5120560;27;20031;-59
2022/01/28 01:03:19;;;;;;;26.92;2.90;;;;;;;;;;5121932;27;20050;-61
2022/01/28 01:05:45;;;;;;;18.90;2.15;;;;;;;;;;5131434;27;20043;-61
2022/01/28 01:08:11;;;;;;;15.82;2.42;;;;;;;;;;5131850;27;20055;-60
2022/01/28 01:10:37;;;;;;;15.73;2.42;;;;;;;;;;5130773;27;20031;-61
2022/01/28 01:13:04;;;;;;;17.33;3.03;;;;;;;;;;5127728;27;20050;-60
2022/01/28 01:15:35;;;;;;;27.60;3.45;;;;;;;;;;5129853;27;20423;-61
2022/01/28 01:18:18;;;;;;;15.73;2.30;;;;;;;;;;5132618;27;20080;-61
2022/01/28 01:23:34;;;;;;;17.65;2.70;;;;;;;;;;5131933;27;20073;-62
2022/01/28 01:26:08;;;;;;;21.33;2.88;;;;;;;;;;5127149;27;20054;-62
2022/01/28 01:28:37;;;;;;;25.08;3.25;;;;;;;;;;5130287;27;20186;-60
2022/01/28 01:31:05;;;;;;;21.55;2.90;;;;;;;;;;5131253;27;20079;-61
2022/01/28 01:33:35;;;;;;;19.80;2.40;;;;;;;;;;5131567;27;20382;-61
2022/01/28 01:36:02;;;;;;;16.15;2.33;;;;;;;;;;5130173;27;20110;-61
2022/01/28 01:38:32;;;;;;;23.15;2.78;;;;;;;;;;5131867;27;20069;-61
2022/01/28 01:41:03;;;;;;;14.98;2.33;;;;;;;;;;5131455;27;20047;-61
2022/01/28 01:43:43;;;;;;;26.77;2.67;;;;;;;;;;5132035;27;20039;-61
2022/01/28 01:46:26;;;;;;;20.60;2.70;;;;;;;;;;5116981;27;20094;-60
2022/01/28 01:54:22;;;;;;;15.05;3.15;;;;;;;;;;5130752;27;20043;-62
2022/01/28 01:56:48;;;;;;;18.70;2.75;;;;;;;;;;5131916;27;20034;-61
2022/01/28 01:59:14;;;;;;;17.17;2.53;;;;;;;;;;5131365;27;20524;-60
2022/01/28 02:01:40;;;;;;;23.10;2.60;;;;;;;;;;5128095;27;20035;-61
2022/01/28 02:04:06;;;;;;;20.95;2.67;;;;;;;;;;5130314;27;20058;-61
2022/01/28 02:06:33;;;;;;;21.63;2.70;;;;;;;;;;5131930;27;20045;-61
2022/01/28 02:08:59;;;;;;;24.83;4.63;;;;;;;;;;5127255;27;20043;-62
2022/01/28 02:11:25;;;;;;;24.00;3.10;;;;;;;;;;5130404;27;20035;-60
2022/01/28 02:13:52;;;;;;;21.40;2.65;;;;;;;;;;5131243;27;20401;-60
2022/01/28 02:16:19;;;;;;;18.88;2.88;;;;;;;;;;5127423;27;20081;-62
2022/01/28 02:18:45;;;;;;;24.73;3.20;;;;;;;;;;5129803;27;20035;-60
2022/01/28 02:21:14;;;;;;;21.05;3.08;;;;;;;;;;5123359;27;20047;-60
2022/01/28 02:23:42;;;;;;;22.30;2.60;;;;;;;;;;5135569;27;20510;-61
2022/01/28 02:26:13;;;;;;;18.27;2.47;;;;;;;;;;5131951;27;20532;-61
2022/01/28 02:28:40;;;;;;;23.17;2.58;;;;;;;;;;5129901;27;20071;-61
2022/01/28 02:31:06;;;;;;;21.70;2.97;;;;;;;;;;5130902;27;20035;-59
2022/01/28 02:33:32;;;;;;;15.73;3.10;;;;;;;;;;5116065;27;20035;-61
2022/01/28 02:36:05;;;;;;;15.48;2.78;;;;;;;;;;5129958;27;20118;-60
2022/01/28 02:38:32;;;;;;;13.98;2.15;;;;;;;;;;5131044;27;20039;-61
2022/01/28 02:41:00;;;;;;;17.02;2.40;;;;;;;;;;5129982;27;20126;-61
2022/01/28 02:46:12;;;;;;;20.42;2.72;;;;;;;;;;5129940;27;20507;-61
2022/01/28 02:48:39;;;;;;;14.63;2.58;;;;;;;;;;5129616;27;20077;-62
2022/01/28 02:51:18;;;;;;;18.48;2.78;;;;;;;;;;5127581;27;20479;-60
2022/01/28 02:53:56;;;;;;;18.98;2.05;;;;;;;;;;5130338;27;20035;-60
2022/01/28 02:56:34;;;;;;;19.88;3.65;;;;;;;;;;5128906;27;20054;-61
2022/01/28 02:59:00;;;;;;;20.63;2.30;;;;;;;;;;5128433;27;20047;-60
2022/01/28 03:01:26;;;;;;;18.98;3.85;;;;;;;;;;5128588;27;20078;-60
2022/01/28 03:03:55;;;;;;;22.17;2.85;;;;;;;;;;5130338;27;20046;-59
2022/01/28 03:06:21;;;;;;;17.75;2.95;;;;;;;;;;5128602;27;20048;-60
2022/01/28 03:08:56;;;;;;;18.63;2.13;;;;;;;;;;5131327;27;20079;-61
2022/01/28 03:11:42;;;;;;;14.32;2.20;;;;;;;;;;5129757;27;20766;-62
2022/01/28 03:16:51;;;;;;;21.17;3.92;;;;;;;;;;5130910;27;20082;-62
2022/01/28 03:19:20;;;;;;;18.42;3.20;;;;;;;;;;5130270;27;20039;-59
2022/01/28 03:21:57;;;;;;;18.23;2.65;;;;;;;;;;5128024;27;20404;-62
2022/01/28 03:24:24;;;;;;;15.50;2.30;;;;;;;;;;5129582;27;20137;-61
2022/01/28 03:26:54;;;;;;;19.65;2.47;;;;;;;;;;5130794;28;20110;-61
2022/01/28 03:29:20;;;;;;;24.73;4.07;;;;;;;;;;5125612;27;20477;-60
2022/01/28 03:31:46;;;;;;;16.63;1.92;;;;;;;;;;5127433;27;20515;-61
2022/01/28 03:34:12;;;;;;;15.52;2.25;;;;;;;;;;5129781;28;20046;-61
2022/01/28 03:36:38;;;;;;;20.63;2.45;;;;;;;;;;5112748;27;20032;-62
2022/01/28 03:39:04;;;;;;;15.95;2.42;;;;;;;;;;5130989;27;20059;-61
2022/01/28 03:41:30;;;;;;;23.08;2.70;;;;;;;;;;5130637;27;20050;-59
2022/01/28 03:44:00;;;;;;;17.77;2.80;;;;;;;;;;5127632;27;20039;-61
2022/01/28 03:46:27;;;;;;;21.27;2.85;;;;;;;;;;5128331;27;20035;-61
2022/01/28 03:48:53;;;;;;;14.35;2.40;;;;;;;;;;5129869;28;20587;-61
2022/01/28 03:51:20;;;;;;;12.85;2.33;;;;;;;;;;5127688;27;20397;-62
2022/01/28 03:53:46;;;;;;;23.98;2.22;;;;;;;;;;5128637;28;20027;-60
2022/01/28 03:56:12;;;;;;;18.20;2.38;;;;;;;;;;5114248;28;20478;-61
2022/01/28 03:58:38;;;;;;;21.70;2.45;;;;;;;;;;5112494;28;20386;-60
2022/01/28 04:01:10;;;;;;;10.80;1.63;;;;;;;;;;5126920;27;20124;-61
2022/01/28 04:03:41;;;;;;;17.63;2.25;;;;;;;;;;5112429;28;20054;-61
2022/01/28 04:11:39;;;;;;;15.48;2.50;;;;;;;;;;5129056;28;20043;-62
2022/01/28 04:14:46;;;;;;;16.33;2.20;;;;;;;;;;5126086;27;20043;-61
2022/01/28 04:19:43;;;;;;;15.75;2.15;;;;;;;;;;5132095;27;20435;-61
2022/01/28 04:22:10;;;;;;;18.38;2.42;;;;;;;;;;5133784;27;20045;-61
2022/01/28 04:24:35;;;;;;;17.05;2.47;;;;;;;;;;5129010;27;20035;-61
2022/01/28 04:27:02;;;;;;;12.30;2.30;;;;;;;;;;5132664;27;20043;-59
2022/01/28 04:29:28;;;;;;;16.00;2.55;;;;;;;;;;5133867;27;20031;-61
2022/01/28 04:31:54;;;;;;;16.90;2.65;;;;;;;;;;5134099;27;20041;-60
2022/01/28 04:34:22;;;;;;;23.75;2.83;;;;;;;;;;5134051;27;20110;-61
2022/01/28 04:37:07;;;;;;;18.75;1.95;;;;;;;;;;5131467;27;20038;-60
2022/01/28 04:45:02;;;;;;;16.00;3.05;;;;;;;;;;5132862;27;20420;-59
2022/01/28 04:58:25;;;;;;;25.95;3.53;;;;;;;;;;5073530;28;20048;-61
2022/01/28 05:27:09;;;;;;;23.95;3.25;;;;;;;;;;5069864;28;20056;-60
2022/01/28 05:29:35;;;;;;;19.65;2.88;;;;;;;;;;5075917;28;20475;-61
2022/01/28 05:32:02;;;;;;;20.90;3.08;;;;;;;;;;5080378;27;20065;-60
2022/01/28 05:34:28;;;;;;;20.67;2.33;;;;;;;;;;5131148;27;20035;-61
2022/01/28 05:36:54;;;;;;;18.42;2.60;;;;;;;;;;5131838;27;20035;-61
2022/01/28 05:39:20;;;;;;;20.30;2.78;;;;;;;;;;5132243;27;20869;-60
2022/01/28 05:41:47;;;;;;;25.52;2.42;;;;;;;;;;5131195;27;20035;-61
2022/01/28 05:44:13;;;;;;;22.75;2.90;;;;;;;;;;5128911;27;20542;-60
2022/01/28 05:46:39;;;;;;;25.00;9.27;;;;;;;;;;5131579;27;20473;-62
2022/01/28 05:49:05;;;;;;;13.60;2.30;;;;;;;;;;5130453;27;20080;-61
2022/01/28 05:51:31;;;;;;;24.55;3.33;;;;;;;;;;5131065;27;20039;-60
2022/01/28 05:54:00;;;;;;;19.65;3.10;;;;;;;;;;5131536;27;20122;-62
2022/01/28 05:56:27;;;;;;;23.23;3.38;;;;;;;;;;5127449;27;20755;-61
2022/01/28 05:58:53;;;;;;;15.07;2.92;;;;;;;;;;5115304;27;20032;-61
2022/01/28 06:01:20;;;;;;;21.40;3.03;;;;;;;;;;5130825;27;20031;-60
2022/01/28 06:03:47;;;;;;;21.10;2.95;;;;;;;;;;5128774;27;20031;-61
2022/01/28 06:06:19;;;;;;;18.90;3.10;;;;;;;;;;5132298;27;20043;-60
2022/01/28 06:08:45;;;;;;;21.10;2.70;;;;;;;;;;5130737;27;20050;-60
2022/01/28 06:11:11;;;;;;;13.68;3.03;;;;;;;;;;5131072;27;20055;-60
2022/01/28 06:13:37;;;;;;;25.92;4.25;;;;;;;;;;5119473;27;20042;-60
2022/01/28 06:16:04;;;;;;;17.95;6.35;;;;;;;;;;5126988;27;20448;-61
2022/01/28 06:18:30;;;;;;;18.17;2.75;;;;;;;;;;5115031;27;20054;-61
2022/01/28 06:20:56;;;;;;;21.23;2.47;;;;;;;;;;5114497;27;20515;-61
2022/01/28 06:23:22;;;;;;;17.52;2.35;;;;;;;;;;5128206;27;20078;-60
2022/01/28 06:25:49;;;;;;;22.63;4.57;;;;;;;;;;5131645;27;20042;-60
2022/01/28 06:28:15;;;;;;;17.73;2.70;;;;;;;;;;5130198;27;20126;-59
2022/01/28 06:30:41;;;;;;;17.45;3.17;;;;;;;;;;5130791;27;20046;-61
2022/01/28 06:33:07;;;;;;;16.58;2.70;;;;;;;;;;5126665;27;20050;-60
2022/01/28 06:35:33;;;;;;;18.80;2.97;;;;;;;;;;5129337;27;20488;-60
2022/01/28 06:37:59;;;;;;;17.88;2.95;;;;;;;;;;5131981;27;20043;-60
2022/01/28 06:40:25;;;;;;;29.70;4.85;;;;;;;;;;5129953;27;20039;-58
2022/01/28 06:42:51;;;;;;;19.73;3.20;;;;;;;;;;5127840;27;20035;-61
2022/01/28 06:45:17;;;;;;;25.17;2.88;;;;;;;;;;5128913;27;20043;-59
2022/01/28 06:47:43;;;;;;;20.58;3.67;;;;;;;;;;5130177;27;21650;-59
2022/01/28 06:50:10;;;;;;;19.17;2.72;;;;;;;;;;5114957;27;20040;-59
2022/01/28 06:52:36;;;;;;;20.98;2.60;;;;;;;;;;5129917;27;20092;-60
2022/01/28 06:55:03;;;;;;;23.63;3.55;;;;;;;;;;5131189;27;20027;-59
2022/01/28 06:57:29;;;;;;;22.20;3.97;;;;;;;;;;5131322;27;20038;-59
2022/01/28 06:59:56;;;;;;;18.83;3.15;;;;;;;;;;5127434;27;20031;-61
2022/01/28 07:02:22;;;;;;;20.60;3.60;;;;;;;;;;5131143;27;20385;-60
2022/01/28 07:04:48;;;;;;;19.73;2.70;;;;;;;;;;5130178;27;20063;-59
2022/01/28 07:07:14;;;;;;;17.52;3.10;;;;;;;;;;5115299;27;20412;-59
2022/01/28 07:09:40;;;;;;;19.30;2.65;;;;;;;;;;5130895;27;20041;-59
2022/01/28 07:12:07;;;;;;;26.48;3.30;;;;;;;;;;5130528;27;20114;-60
2022/01/28 07:14:33;;;;;;;17.30;2.97;;;;;;;;;;5130964;27;20039;-61
2022/01/28 07:16:59;;;;;;;23.27;3.65;;;;;;;;;;5129517;27;20043;-59
2022/01/28 07:19:25;;;;;;;15.52;2.38;;;;;;;;;;5130717;27;20047;-60
2022/01/28 07:21:51;;;;;;;17.65;2.53;;;;;;;;;;5118578;27;20039;-59
2022/01/28 07:24:17;;;;;;;26.42;3.42;;;;;;;;;;5120001;27;20095;-61
2022/01/28 07:26:44;;;;;;;21.42;2.67;;;;;;;;;;5128006;27;20126;-60
2022/01/28 07:29:11;;;;;;;18.98;2.85;;;;;;;;;;5129483;28;20367;-60
2022/01/28 07:31:38;;;;;;;19.50;2.55;;;;;;;;;;5130459;27;20560;-60
2022/01/28 07:34:06;;;;;;;20.88;3.58;;;;;;;;;;5112403;28;20108;-59
2022/01/28 07:36:32;;;;;;;18.65;2.70;;;;;;;;;;5131211;27;20550;-60
2022/01/28 07:38:58;;;;;;;20.95;2.67;;;;;;;;;;5128958;28;20042;-59
2022/01/28 07:41:24;;;;;;;20.50;3.00;;;;;;;;;;5130869;27;20511;-59
2022/01/28 07:43:50;;;;;;;16.45;3.35;;;;;;;;;;5128936;27;20041;-63
2022/01/28 07:46:16;;;;;;;24.80;2.90;;;;;;;;;;5122065;27;20118;-62
2022/01/28 07:48:42;;;;;;;24.55;2.90;;;;;;;;;;5130788;28;20043;-63
2022/01/28 07:51:08;;;;;;;18.63;3.20;;;;;;;;;;5130743;27;20466;-61
2022/01/28 07:53:34;;;;;;;14.15;2.88;;;;;;;;;;5133256;27;20046;-62
2022/01/28 07:56:00;;;;;;;18.23;2.50;;;;;;;;;;5134701;27;20047;-62
2022/01/28 07:58:26;;;;;;;24.75;3.30;;;;;;;;;;5116576;27;20363;-63
2022/01/28 08:00:52;;;;;;;19.95;2.38;;;;;;;;;;5134661;27;20123;-61
2022/01/28 08:03:18;;;;;;;19.17;2.97;;;;;;;;;;5134926;27;20110;-61
2022/01/28 08:05:44;;;;;;;22.70;3.63;;;;;;;;;;5131950;27;20047;-61
2022/01/28 08:08:12;;;;;;;23.80;3.08;;;;;;;;;;5134192;27;20557;-61
2022/01/28 08:10:38;;;;;;;20.85;2.78;;;;;;;;;;5116670;27;20043;-61
2022/01/28 08:13:05;;;;;;;13.13;2.67;;;;;;;;;;5134038;27;20042;-61
2022/01/28 08:15:31;;;;;;;15.80;2.92;;;;;;;;;;5134021;27;20382;-62
2022/01/28 08:17:58;;;;;;;20.92;2.97;;;;;;;;;;5134498;27;20034;-61
2022/01/28 08:20:24;;;;;;;17.25;2.83;;;;;;;;;;5123763;27;20043;-60
2022/01/28 08:22:51;;;;;;;26.17;4.05;;;;;;;;;;5134616;27;20039;-62
2022/01/28 08:25:18;;;;;;;19.85;3.10;;;;;;;;;;5117069;27;20443;-61
2022/01/28 08:27:44;;;;;;;20.65;3.25;;;;;;;;;;5134033;27;20053;-62
2022/01/28 08:30:15;;;;;;;20.92;2.85;;;;;;;;;;5115651;27;20487;-62
2022/01/28 08:32:41;;;;;;;23.40;3.20;;;;;;;;;;5134170;27;20038;-61
2022/01/28 08:35:07;;;;;;;19.83;2.67;;;;;;;;;;5133806;27;20122;-62
2022/01/28 08:37:34;;;;;;;20.40;2.75;;;;;;;;;;5130945;27;20084;-61
2022/01/28 08:40:00;;;;;;;17.10;2.38;;;;;;;;;;5134195;27;20088;-62
2022/01/28 08:42:27;;;;;;;24.98;3.30;;;;;;;;;;5115333;27;20036;-62
2022/01/28 08:44:53;;;;;;;24.13;4.22;;;;;;;;;;5134103;27;20031;-61
2022/01/28 08:47:19;;;;;;;23.02;3.67;;;;;;;;;;5132746;27;20031;-62
2022/01/28 08:49:46;;;;;;;22.50;3.47;;;;;;;;;;5131615;27;20031;-61
2022/01/28 08:52:12;;;;;;;29.58;4.07;;;;;;;;;;5133453;27;20041;-61
2022/01/28 08:54:38;;;;;;;22.25;2.80;;;;;;;;;;5133769;27;20052;-61
2022/01/28 08:57:05;;;;;;;20.45;3.00;;;;;;;;;;5133986;27;20489;-61
2022/01/28 08:59:31;;;;;;;27.13;3.88;;;;;;;;;;5122491;27;20047;-61
2022/01/28 09:01:57;;;;;;;25.48;3.47;;;;;;;;;;5133854;27;20047;-61
2022/01/28 09:04:23;;;;;;;18.13;2.83;;;;;;;;;;5133207;27;20118;-61
2022/01/28 09:06:49;;;;;;;18.40;2.67;;;;;;;;;;5133777;27;20164;-61
2022/01/28 09:09:18;;;;;;;21.55;3.58;;;;;;;;;;5131208;27;20047;-61
2022/01/28 09:11:54;;;;;;;26.77;3.90;;;;;;;;;;5133788;27;20043;-61
2022/01/28 09:14:21;;;;;;;22.25;3.30;;;;;;;;;;5133609;27;20067;-61
2022/01/28 09:16:47;;;;;;;19.30;3.33;;;;;;;;;;5133648;27;20031;-61
2022/01/28 09:19:14;;;;;;;23.15;2.85;;;;;;;;;;5133380;27;20071;-62
2022/01/28 09:21:40;;;;;;;16.52;3.28;;;;;;;;;;5132730;27;20042;-62
2022/01/28 09:24:06;;;;;;;23.13;3.85;;;;;;;;;;5133337;27;20046;-61
2022/01/28 09:26:32;;;;;;;24.17;3.47;;;;;;;;;;5133144;27;20035;-61
2022/01/28 09:28:59;;;;;;;24.40;3.35;;;;;;;;;;5133332;27;20038;-62
2022/01/28 09:31:25;;;;;;;23.90;3.30;;;;;;;;;;5129980;27;20070;-61
2022/01/28 09:33:52;;;;;;;30.30;3.60;;;;;;;;;;5130961;27;20039;-61
2022/01/28 09:36:18;;;;;;;21.30;2.90;;;;;;;;;;5131844;27;20114;-61
2022/01/28 09:38:44;;;;;;;24.10;3.40;;;;;;;;;;5123280;27;20057;-61
2022/01/28 09:41:10;;;;;;;21.10;3.47;;;;;;;;;;5131354;27;20477;-60
2022/01/28 09:43:36;;;;;;;23.38;3.25;;;;;;;;;;5132788;27;20088;-61
2022/01/28 09:46:03;;;;;;;21.67;3.45;;;;;;;;;;5133089;27;20080;-62
2022/01/28 09:48:29;;;;;;;25.10;4.05;;;;;;;;;;5125266;27;20130;-62
2022/01/28 09:50:58;;;;;;;27.55;4.57;;;;;;;;;;5130356;27;20050;-61
2022/01/28 09:53:24;;;;;;;19.73;4.20;;;;;;;;;;5132577;27;20400;-62
2022/01/28 09:55:50;;;;;;;22.05;4.40;;;;;;;;;;5131237;27;20126;-61
2022/01/28 09:58:17;;;;;;;20.08;3.30;;;;;;;;;;5127288;27;20051;-61
2022/01/28 10:00:43;;;;;;;24.23;3.92;;;;;;;;;;5132396;27;20037;-61
2022/01/28 10:03:11;;;;;;;19.83;3.05;;;;;;;;;;5129390;27;20050;-61
2022/01/28 10:05:38;;;;;;;27.73;3.10;;;;;;;;;;5132344;27;20439;-61
2022/01/28 10:08:06;;;;;;;27.15;4.25;;;;;;;;;;5132156;27;20146;-61
2022/01/28 10:10:41;;;;;;;17.63;3.30;;;;;;;;;;5132627;27;20039;-61
2022/01/28 10:13:09;;;;;;;23.80;4.10;;;;;;;;;;5114399;27;20031;-61
2022/01/28 10:15:36;;;;;;;22.30;4.03;;;;;;;;;;5116823;27;20035;-62
2022/01/28 10:18:02;;;;;;;25.98;4.15;;;;;;;;;;5131880;27;20039;-62
2022/01/28 10:20:28;;;;;;;29.10;4.60;;;;;;;;;;5132252;27;20126;-61
2022/01/28 10:22:59;;;;;;;26.05;5.07;;;;;;;;;;5132171;27;20035;-61
2022/01/28 10:25:26;;;;;;;32.90;4.10;;;;;;;;;;5132451;27;20099;-61
2022/01/28 10:27:59;;;;;;;26.85;4.35;;;;;;;;;;5132134;27;20039;-61
2022/01/28 10:30:25;;;;;;;30.08;6.13;;;;;;;;;;5132298;27;20035;-61
2022/01/28 10:33:09;;;;;;;29.27;4.40;;;5.70;99.90;;;;;;5131848;27;20031;-62
2022/01/28 10:35:35;;;;;;;30.38;5.38;;;;;;;;;;5128508;27;20046;-60
2022/01/28 10:38:02;;;;;;;23.60;5.00;;;;;;;;;;5131602;27;20050;-61
2022/01/28 10:40:28;;;;;;;33.13;5.60;;;;;;;;;;5132173;27;20407;-61
2022/01/28 10:42:54;;;;;;;25.80;4.57;;;;;;;;;;5131903;27;20062;-61
2022/01/28 10:45:22;;;;;;;27.98;5.32;;;;;;;;;;5132182;27;20027;-61
2022/01/28 10:47:50;;;;;;;24.30;4.72;;;;;;;;;;5121169;27;20039;-62
2022/01/28 10:50:26;;;;;;;30.52;3.95;;;;;;;;;;5131504;27;20122;-62
2022/01/28 10:53:12;;;;;;;30.67;3.90;;;;;;;;;;5115251;27;20542;-62
2022/01/28 10:55:39;;;;;;;20.48;3.72;;;;;;;;;;5114241;27;20036;-61
2022/01/28 10:58:07;;;;;;;22.48;4.35;;;;;;;;;;5128823;27;20053;-61
2022/01/28 11:00:38;;;;;;;21.52;3.60;;;;;;;;;;5131024;27;20454;-61
2022/01/28 11:03:05;;;;;;;22.73;3.38;;;;;;;;;;5129604;27;20046;-61
2022/01/28 11:05:32;;;;;;;21.40;3.70;;;;;;;;;;5131769;27;20062;-61
2022/01/28 11:07:59;;;;;;;16.45;2.75;;;;;;;;;;5131346;27;20061;-61
2022/01/28 11:10:25;;;;;;;24.50;3.53;;;;;;;;;;5131248;27;20092;-60
2022/01/28 11:12:54;;;;;;;24.25;3.67;;;;;;;;;;5131531;27;20042;-62
2022/01/28 11:15:20;;;;;;;21.50;2.83;;;;;;;;;;5130944;27;20073;-61
2022/01/28 11:17:48;;;;;;;13.75;2.67;;;;;;;;;;5131272;27;20553;-61
2022/01/28 11:20:18;;;;;;;16.60;3.45;;;;;;;;;;5130648;27;20374;-62
2022/01/28 11:23:25;;;;;;;21.15;3.67;;;7.10;99.90;;;;;;5131165;27;20070;-61
2022/01/28 11:26:24;;;;;;;17.83;3.80;;;7.30;99.90;;;;;;5087700;28;20044;-60
2022/01/28 11:28:51;;;;;;;26.38;3.13;;;;;;;;;;5087859;28;20036;-62
2022/01/28 11:31:37;;;;;;;21.98;2.97;;;;;;;;;;5087090;28;20062;-61
2022/01/28 11:34:13;;;;;;;18.10;2.80;;;;;;;;;;5087828;28;20623;-61
2022/01/28 11:36:39;;;;;;;22.45;4.35;;;;;;;;;;5090547;28;20056;-61
2022/01/28 11:39:18;;;;;;;15.07;2.92;;;;;;;;;;5069602;28;20050;-61
2022/01/28 11:42:00;;;;;;;19.30;2.95;;;;;;;;;;5082788;28;20126;-61
2022/01/28 11:44:52;;;;;;;22.27;3.47;;;7.70;99.90;;;;;;5088075;28;20050;-61
2022/01/28 11:47:24;;;;;;;18.15;3.45;;;;;;;;;;5084183;28;20044;-61
2022/01/28 11:50:19;;;;;;;13.90;2.50;;;7.40;99.90;;;;;;5087959;28;20055;-61
2022/01/28 11:52:47;;;;;;;16.73;2.50;;;;;;;;;;5086278;28;20085;-61
2022/01/28 11:55:24;;;;;;;24.83;2.83;;;;;;;;;;5085296;28;20127;-61
2022/01/28 11:57:56;;;;;;;25.95;3.03;;;;;;;;;;5084157;28;20047;-62
2022/01/28 12:00:23;;;;;;;15.52;3.45;;;;;;;;;;5072078;28;20035;-61
2022/01/28 12:02:52;;;;;;;20.60;2.42;;;;;;;;;;5113143;28;20443;-61
2022/01/28 12:05:30;;;;;;;15.93;3.42;;;;;;;;;;5130409;28;20464;-61
2022/01/28 12:07:57;;;;;;;14.75;2.47;;;;;;;;;;5131117;28;20047;-61
2022/01/28 12:10:24;;;;;;;15.70;2.65;;;;;;;;;;5130703;28;20047;-61
2022/01/28 12:13:05;;;;;;;24.20;3.25;;;;;;;;;;5112369;28;20097;-61
2022/01/28 12:15:32;;;;;;;19.13;2.83;;;;;;;;;;5130402;27;20038;-61
2022/01/28 12:18:19;;;;;;;23.35;4.05;;;;;;;;;;5130392;27;20042;-61
2022/01/28 12:20:48;;;;;;;25.55;5.15;;;;;;;;;;5130833;27;20084;-61
2022/01/28 12:23:14;;;;;;;27.17;5.32;;;;;;;;;;5130870;28;20070;-61
2022/01/28 12:25:40;;;;;;;26.23;5.90;;;;;;;;;;5130388;28;20067;-61
2022/01/28 12:28:20;;;;;;;21.95;4.65;;;;;;;;;;5130079;28;20043;-62
2022/01/28 12:30:50;;;;;;;27.42;4.65;;;;;;;;;;5130553;28;20031;-62
2022/01/28 12:33:22;;;;;;;24.52;3.90;;;;;;;;;;5130576;28;20147;-61
2022/01/28 12:35:50;;;;;;;24.25;4.93;;;;;;;;;;5128271;28;20084;-62
2022/01/28 12:38:21;;;;;;;25.92;3.58;;;;;;;;;;5130214;27;20043;-61
2022/01/28 12:40:50;;;;;;;25.10;3.53;;;;;;;;;;5117311;27;20043;-62
2022/01/28 12:43:20;;;;;;;26.58;3.50;;;;;;;;;;5115982;27;20379;-61
2022/01/28 12:46:05;;;;;;;30.02;4.10;;;10.20;99.90;;;;;;5132848;27;20063;-62
2022/01/28 12:48:32;;;;;;;23.30;3.85;;;;;;;;;;5126553;27;20424;-62
2022/01/28 12:50:58;;;;;;;23.63;4.95;;;;;;;;;;5133848;27;20038;-62
2022/01/28 12:53:32;;;;;;;27.42;3.53;;;;;;;;;;5133915;27;20128;-62
2022/01/28 12:56:02;;;;;;;19.25;3.28;;;;;;;;;;5133344;27;20039;-63
2022/01/28 12:58:35;;;;;;;23.98;3.65;;;;;;;;;;5132815;27;20126;-62
2022/01/28 13:01:08;;;;;;;18.73;3.33;;;;;;;;;;5133608;27;20035;-61
2022/01/28 13:03:45;;;;;;;18.75;3.22;;;;;;;;;;5133392;27;20070;-62
2022/01/28 13:06:29;;;;;;;18.55;3.00;;;;;;;;;;5133477;27;20439;-63
2022/01/28 13:08:56;;;;;;;20.35;3.30;;;;;;;;;;5132032;27;20104;-64
2022/01/28 13:11:23;;;;;;;20.63;3.03;;;;;;;;;;5133139;27;20485;-63
2022/01/28 13:13:51;;;;;;;27.42;3.72;;;;;;;;;;5132351;27;20035;-62
2022/01/28 13:16:28;;;;;;;17.80;2.67;;;;;;;;;;5133922;27;20621;-64
2022/01/28 13:18:58;;;;;;;24.20;3.58;;;;;;;;;;5133407;27;20043;-63
2022/01/28 13:21:24;;;;;;;16.63;2.85;;;;;;;;;;5129813;27;20054;-63
2022/01/28 13:24:03;;;;;;;16.42;3.10;;;;;;;;;;5121188;27;20043;-62
2022/01/28 13:26:29;;;;;;;17.10;2.90;;;;;;;;;;5133404;27;20393;-63
2022/01/28 13:29:11;;;;;;;21.88;3.17;;;;;;;;;;5132725;27;20489;-63
2022/01/28 13:31:37;;;;;;;18.45;2.60;;;;;;;;;;5130227;27;20031;-62
2022/01/28 13:34:05;;;;;;;20.27;2.90;;;;;;;;;;5131866;27;20073;-62
2022/01/28 13:36:48;;;;;;;16.20;2.80;;;;;;;;;;5132310;27;20110;-62
2022/01/28 13:39:25;;;;;;;17.25;2.10;;;;;;;;;;5133170;27;20493;-61
2022/01/28 13:42:06;;;;;;;15.85;2.28;;;;;;;;;;5132825;27;20047;-62
2022/01/28 13:44:38;;;;;;;20.98;2.28;;;;;;;;;;5132611;27;20063;-62
2022/01/28 13:47:04;;;;;;;16.33;2.95;;;;;;;;;;5111220;27;20084;-62
2022/01/28 13:49:31;;;;;;;18.45;2.38;;;;;;;;;;5122639;27;20039;-62
2022/01/28 13:52:15;;;;;;;13.95;2.33;;;;;;;;;;5132936;27;20041;-62
2022/01/28 13:54:41;;;;;;;16.92;2.28;;;;;;;;;;5132861;27;20088;-62
2022/01/28 13:57:08;;;;;;;12.13;2.22;;;;;;;;;;5132439;27;20039;-62
2022/01/28 13:59:35;;;;;;;13.85;1.88;;;;;;;;;;5133093;27;20449;-62
2022/01/28 14:02:02;;;;;;;11.82;2.00;;;;;;;;;;5132185;27;20118;-62
2022/01/28 14:04:35;;;;;;;17.52;3.03;;;;;;;;;;5133110;27;20046;-62
2022/01/28 14:07:15;;;;;;;14.95;2.53;;;;;;;;;;5132388;27;20039;-62
2022/01/28 14:09:45;;;;;;;15.10;2.03;;;;;;;;;;5132260;27;20628;-62
2022/01/28 14:12:13;;;;;;;15.02;2.00;;;;;;;;;;5132428;27;20034;-62
2022/01/28 14:14:47;;;;;;;17.92;2.85;;;;;;;;;;5132843;27;20504;-62
2022/01/28 14:17:14;;;;;;;16.35;2.08;;;;;;;;;;5132232;27;20058;-62
2022/01/28 14:19:41;;;;;;;19.23;2.78;;;;;;;;;;5132284;27;20035;-62
2022/01/28 14:22:12;;;;;;;10.10;1.75;;;;;;;;;;5132192;27;20088;-62
2022/01/28 14:24:44;;;;;;;16.90;2.72;;;;;;;;;;5132524;27;20038;-63
2022/01/28 14:27:23;;;;;;;23.80;2.77;;;;;;;;;;5132052;27;20409;-62
2022/01/28 14:29:52;;;;;;;17.35;1.80;;;;;;;;;;5132397;27;20816;-62
2022/01/28 14:32:22;;;;;;;16.35;1.98;;;;;;;;;;5113805;27;20096;-62
2022/01/28 14:34:49;;;;;;;17.63;2.72;;;;;;;;;;5132481;27;20031;-63
2022/01/28 14:37:15;;;;;;;10.05;1.70;;;;;;;;;;5131757;27;20751;-62
2022/01/28 14:39:42;;;;;;;14.75;2.35;;;;;;;;;;5112103;27;20035;-62
2022/01/28 14:42:09;;;;;;;15.43;2.58;;;;;;;;;;5130170;27;20057;-62
2022/01/28 14:44:37;;;;;;;20.30;2.42;;;;;;;;;;5131930;27;20039;-62
2022/01/28 14:47:03;;;;;;;13.75;1.88;;;;;;;;;;5131695;27;20074;-62
2022/01/28 14:49:29;;;;;;;18.38;2.75;;;;;;;;;;5131105;27;20122;-62
2022/01/28 14:52:00;;;;;;;14.18;2.15;;;;;;;;;;5130845;27;20039;-61
2022/01/28 14:54:27;;;;;;;15.93;2.63;;;;;;;;;;5130210;27;20050;-62
2022/01/28 14:56:54;;;;;;;15.35;2.10;;;;;;;;;;5131809;27;20065;-62
2022/01/28 14:59:20;;;;;;;16.35;1.92;;;;;;;;;;5131077;27;20046;-62
2022/01/28 15:01:46;;;;;;;13.15;1.92;;;;;;;;;;5131082;27;20038;-62
2022/01/28 15:04:12;;;;;;;14.35;2.40;;;;;;;;;;5131733;27;20362;-62
2022/01/28 15:06:38;;;;;;;12.93;2.15;;;;;;;;;;5131531;27;20038;-62
2022/01/28 15:09:05;;;;;;;20.30;2.50;;;;;;;;;;5131309;27;20047;-62
2022/01/28 15:11:44;;;;;;;18.50;2.50;;;;;;;;;;5120426;27;20124;-62
2022/01/28 15:14:11;;;;;;;13.35;2.10;;;;;;;;;;5130804;27;20042;-62
2022/01/28 15:16:37;;;;;;;26.25;4.22;;;;;;;;;;5131431;27;20050;-62
2022/01/28 15:19:03;;;;;;;17.25;3.85;;;;;;;;;;5131662;27;20039;-62
2022/01/28 15:21:29;;;;;;;17.48;2.78;;;;;;;;;;5130783;27;20046;-62
2022/01/28 15:23:55;;;;;;;16.67;2.83;;;;;;;;;;5131226;27;20080;-62
2022/01/28 15:26:22;;;;;;;15.20;2.92;;;;;;;;;;5130050;27;20043;-62
2022/01/28 15:28:59;;;;;;;13.57;2.22;;;;;;;;;;5131014;27;20095;-62
2022/01/28 15:36:45;;;;;;;12.65;2.08;;;;;;;;;;5130613;28;20516;-61
2022/01/28 15:39:11;;;;;;;13.80;2.13;;;;;;;;;;5130928;28;20043;-62
2022/01/28 15:41:37;;;;;;;12.57;2.13;;;;;;;;;;5129455;28;20070;-62
2022/01/28 15:44:03;;;;;;;13.30;2.08;;;;;;;;;;5131107;28;20123;-63
2022/01/28 15:46:29;;;;;;;8.20;1.88;;;;;;;;;;5130691;28;20049;-62
2022/01/28 15:48:56;;;;;;;13.75;2.00;;;;;;;;;;5113729;28;20047;-63
2022/01/28 15:51:22;;;;;;;12.30;1.83;;;;;;;;;;5130465;28;20088;-62
2022/01/28 15:53:48;;;;;;;13.90;2.90;;;;;;;;;;5130609;28;20047;-62
2022/01/28 15:56:17;;;;;;;12.43;1.70;;;;;;;;;;5130560;28;20039;-63
2022/01/28 15:58:43;;;;;;;16.73;2.47;;;;;;;;;;5130468;27;20146;-62
2022/01/28 16:01:10;;;;;;;13.18;2.42;;;;;;;;;;5129083;28;20046;-63
2022/01/28 16:03:36;;;;;;;10.80;2.13;;;;;;;;;;5130912;28;20039;-62
2022/01/28 16:06:02;;;;;;;15.02;2.00;;;;;;;;;;5113005;28;20043;-62
2022/01/28 16:08:28;;;;;;;9.80;2.00;;;;;;;;;;5130739;28;20453;-63
2022/01/28 16:18:38;;;;;;;10.73;1.60;;;;;;;;;;5115600;27;20091;-62
2022/01/28 16:21:05;;;;;;;6.85;2.08;;;;;;;;;;5121670;27;20058;-63